Shoryu — 3FVC5 — position and weather

sailwx.info

Track history (hours):
 
Tides and Currents Weather Stations Pressure Air Temp Water Temp Dewpoint Dewpoint Depression Visibility Wind Speed Wind Dir Waves Ship Positions

Shoryu

Last reported at 2018-Feb-12 18:34 UTC. Time now 2018-Feb-20 23:50 UTC.
Position S 25°57' E 153°58'.
Warning: this ship's position is 8 days out of date.

Length 235 m; draft 12.9 m.

Type: Cargo ship. MMSI: 351897000.

Date/timePositionNaut miles runAvg speedWind from/ knotsBaromVisibWave heightAir tempDewpointWater temp
2018-Feb-12 18:34S 25°57' E 153°58'0 8.5
2018-Feb-12 18:30S 25°57' E 153°58'22 9.5
2018-Feb-12 16:14S 26°19' E 153°56'4 9.8
2018-Feb-12 15:50S 26°23' E 153°56'6 9.8
2018-Feb-12 15:12S 26°29' E 153°56'3 9.5
2018-Feb-12 14:56S 26°31' E 153°56'20 8.5
2018-Feb-12 12:33S 26°51' E 153°54'1 8.2
2018-Feb-12 12:27S 26°52' E 153°54'7 8.2
2018-Feb-12 11:39S 26°59' E 153°54'2 8.4
2018-Feb-12 11:27S 27°00' E 153°53'4 8.4
2018-Feb-12 11:00S 27°04' E 153°53'4 8.3
2018-Feb-12 10:30S 27°08' E 153°53'4 8.2
2018-Feb-12 09:59S 27°13' E 153°53'4 8.2
2018-Feb-12 09:30S 27°17' E 153°53'4 8.3
2018-Feb-12 09:00S 27°21' E 153°52'4 8.3
2018-Feb-12 08:30S 27°25' E 153°52'4 8.1
2018-Feb-12 08:00S 27°29' E 153°52'5 8.1
2018-Feb-12 07:26S 27°34' E 153°51'3 8.0
2018-Feb-12 07:00S 27°37' E 153°51'4 7.8
2018-Feb-12 06:30S 27°41' E 153°51'4 7.9
2018-Feb-12 06:00S 27°45' E 153°50'4 8.1
2018-Feb-12 05:30S 27°49' E 153°50'4 8.3
2018-Feb-12 05:00S 27°53' E 153°50'4 8.5
2018-Feb-12 04:30S 27°57' E 153°50'4 8.7
2018-Feb-12 04:00S 28°02' E 153°50'5 9.9
2018-Feb-12 03:30S 28°07' E 153°49'510.8
2018-Feb-12 03:00S 28°12' E 153°49'611.0
2018-Feb-12 02:30S 28°17' E 153°48'510.1
2018-Feb-12 02:00S 28°23' E 153°48'5 9.6
2018-Feb-12 01:30S 28°27' E 153°48'5 9.5
2018-Feb-12 01:00S 28°32' E 153°48'5 9.3
2018-Feb-12 00:30S 28°37' E 153°47'5 9.2
2018-Feb-12 00:00S 28°41' E 153°47'5 9.3
2018-Feb-11 23:29S 28°46' E 153°46'5 9.4
2018-Feb-11 22:58S 28°51' E 153°45'5 9.2
2018-Feb-11 22:29S 28°55' E 153°44'5 9.2
2018-Feb-11 21:54S 29°00' E 153°43'104 9.4
2018-Feb-11 10:48S 30°42' E 153°18'104 9.0
2018-Feb-10 23:18S 32°21' E 152°41'310.6
2018-Feb-10 23:00S 32°24' E 152°40'510.3
2018-Feb-10 22:30S 32°29' E 152°38'610.4
2018-Feb-10 21:57S 32°33' E 152°33'510.6
2018-Feb-10 21:30S 32°36' E 152°29'510.5
2018-Feb-10 21:00S 32°40' E 152°24'510.3
2018-Feb-10 20:30S 32°44' E 152°20'510.1
2018-Feb-10 20:00S 32°47' E 152°16'510.1
2018-Feb-10 19:30S 32°50' E 152°11'5 9.9
2018-Feb-10 19:00S 32°53' E 152°06'5 9.8
2018-Feb-10 18:30S 32°56' E 152°01'5 9.2
2018-Feb-10 18:00S 32°57' E 151°56'5 9.8
2018-Feb-10 17:30S 32°56' E 151°50'3 5.1
2018-Feb-10 17:00S 32°55' E 151°47'2 3.2
2018-Feb-10 16:30S 32°54' E 151°46'1 1.1
2018-Feb-10 15:52S 32°53' E 151°46'0 0.0
2018-Feb-10 15:28S 32°53' E 151°46'0 0.0
2018-Feb-10 14:52S 32°53' E 151°46'0 0.0
2018-Feb-10 14:28S 32°53' E 151°46'0 0.0
2018-Feb-10 13:58S 32°53' E 151°46'0 0.0
2018-Feb-10 13:28S 32°53' E 151°46'0 0.0
2018-Feb-10 12:58S 32°53' E 151°46'0 0.0
2018-Feb-10 12:28S 32°53' E 151°46'0 0.0
2018-Feb-10 11:58S 32°53' E 151°46'0 0.0
2018-Feb-10 11:22S 32°53' E 151°46'0 0.0
2018-Feb-10 10:58S 32°53' E 151°46'0 0.0
2018-Feb-10 09:46S 32°53' E 151°46'0 0.0
2018-Feb-10 09:28S 32°53' E 151°46'0 0.0
2018-Feb-10 08:22S 32°53' E 151°46'0 0.0
2018-Feb-10 07:58S 32°53' E 151°46'0 0.0
2018-Feb-10 07:22S 32°53' E 151°46'0 0.0
2018-Feb-10 06:43S 32°53' E 151°46'0 0.0
2018-Feb-10 06:22S 32°53' E 151°46'0 0.0
2018-Feb-10 05:58S 32°53' E 151°46'0 0.0
2018-Feb-10 05:28S 32°53' E 151°46'0 0.0
2018-Feb-10 04:55S 32°53' E 151°46'0 0.0
2018-Feb-10 04:28S 32°53' E 151°46'0 0.0
2018-Feb-10 03:58S 32°53' E 151°46'0 0.0
2018-Feb-10 03:22S 32°53' E 151°46'0 0.0
2018-Feb-10 02:58S 32°53' E 151°46'0 0.0
2018-Feb-10 02:22S 32°53' E 151°46'0 0.0
2018-Feb-10 01:52S 32°53' E 151°46'0 0.0
2018-Feb-10 01:28S 32°53' E 151°46'0 0.0
2018-Feb-10 00:58S 32°53' E 151°46'0 0.0
2018-Feb-10 00:28S 32°53' E 151°46'0 0.0
2018-Feb-09 23:58S 32°53' E 151°46'0 0.0
2018-Feb-09 23:25S 32°53' E 151°46'0 0.0
2018-Feb-09 22:58S 32°53' E 151°46'0 0.0
2018-Feb-09 22:34S 32°53' E 151°46'8 0.8
2018-Feb-09 12:30S 32°59' E 151°53'3 6.6
2018-Feb-09 12:00S 33°02' E 151°52'3 6.7
2018-Feb-09 11:30S 33°05' E 151°51'3 7.0
2018-Feb-09 11:00S 33°08' E 151°49'4 0.9
2018-Feb-09 07:00S 33°09' E 151°54'2 3.2
2018-Feb-09 06:30S 33°08' E 151°55'2 3.4
2018-Feb-09 06:00S 33°06' E 151°56'2 3.4
2018-Feb-09 05:30S 33°05' E 151°57'3 3.1
2018-Feb-09 04:30S 33°02' E 151°59'4 2.8
2018-Feb-09 03:00S 32°58' E 151°60'510.9
2018-Feb-09 02:30S 32°54' E 152°04'714.2
2018-Feb-09 02:00S 32°50' E 152°11'714.1
2018-Feb-09 01:30S 32°45' E 152°17'714.1
2018-Feb-09 01:00S 32°41' E 152°24'714.6
2018-Feb-09 00:30S 32°36' E 152°30'714.8
2018-Feb-09 00:00S 32°31' E 152°36'5415.3
2018-Feb-08 20:30S 31°41' E 153°01'19014.6
2018-Feb-08 07:30S 28°36' E 153°48'612.8
2018-Feb-08 07:00S 28°29' E 153°48'2412.2
2018-Feb-08 05:00S 28°05' E 153°52'611.8
2018-Feb-08 04:30S 27°59' E 153°53'1212.0
2018-Feb-08 03:30S 27°47' E 153°55'  
Track history (hours):
 
Tides and Currents Weather Stations Pressure Air Temp Water Temp Dewpoint Dewpoint Depression Visibility Wind Speed Wind Dir Waves Ship Positions

Shoryu

Last reported at 2018-Feb-12 18:34 UTC. Time now 2018-Feb-20 23:50 UTC.
Position S 25°57' E 153°58'.
Warning: this ship's position is 8 days out of date.

Length 235 m; draft 12.9 m.

Type: Cargo ship. MMSI: 351897000.

Date/timePositionNaut miles runAvg speedWind from/ knotsBaromVisibWave heightAir tempDewpointWater temp
2018-Feb-12 18:34S 25°57' E 153°58'0 8.5
2018-Feb-12 18:30S 25°57' E 153°58'22 9.5
2018-Feb-12 16:14S 26°19' E 153°56'4 9.8
2018-Feb-12 15:50S 26°23' E 153°56'6 9.8
2018-Feb-12 15:12S 26°29' E 153°56'3 9.5
2018-Feb-12 14:56S 26°31' E 153°56'20 8.5
2018-Feb-12 12:33S 26°51' E 153°54'1 8.2
2018-Feb-12 12:27S 26°52' E 153°54'7 8.2
2018-Feb-12 11:39S 26°59' E 153°54'2 8.4
2018-Feb-12 11:27S 27°00' E 153°53'4 8.4
2018-Feb-12 11:00S 27°04' E 153°53'4 8.3
2018-Feb-12 10:30S 27°08' E 153°53'4 8.2
2018-Feb-12 09:59S 27°13' E 153°53'4 8.2
2018-Feb-12 09:30S 27°17' E 153°53'4 8.3
2018-Feb-12 09:00S 27°21' E 153°52'4 8.3
2018-Feb-12 08:30S 27°25' E 153°52'4 8.1
2018-Feb-12 08:00S 27°29' E 153°52'5 8.1
2018-Feb-12 07:26S 27°34' E 153°51'3 8.0
2018-Feb-12 07:00S 27°37' E 153°51'4 7.8
2018-Feb-12 06:30S 27°41' E 153°51'4 7.9
2018-Feb-12 06:00S 27°45' E 153°50'4 8.1
2018-Feb-12 05:30S 27°49' E 153°50'4 8.3
2018-Feb-12 05:00S 27°53' E 153°50'4 8.5
2018-Feb-12 04:30S 27°57' E 153°50'4 8.7
2018-Feb-12 04:00S 28°02' E 153°50'5 9.9
2018-Feb-12 03:30S 28°07' E 153°49'510.8
2018-Feb-12 03:00S 28°12' E 153°49'611.0
2018-Feb-12 02:30S 28°17' E 153°48'510.1
2018-Feb-12 02:00S 28°23' E 153°48'5 9.6
2018-Feb-12 01:30S 28°27' E 153°48'5 9.5
2018-Feb-12 01:00S 28°32' E 153°48'5 9.3
2018-Feb-12 00:30S 28°37' E 153°47'5 9.2
2018-Feb-12 00:00S 28°41' E 153°47'5 9.3
2018-Feb-11 23:29S 28°46' E 153°46'5 9.4
2018-Feb-11 22:58S 28°51' E 153°45'5 9.2
2018-Feb-11 22:29S 28°55' E 153°44'5 9.2
2018-Feb-11 21:54S 29°00' E 153°43'104 9.4
2018-Feb-11 10:48S 30°42' E 153°18'104 9.0
2018-Feb-10 23:18S 32°21' E 152°41'310.6
2018-Feb-10 23:00S 32°24' E 152°40'510.3
2018-Feb-10 22:30S 32°29' E 152°38'610.4
2018-Feb-10 21:57S 32°33' E 152°33'510.6
2018-Feb-10 21:30S 32°36' E 152°29'510.5
2018-Feb-10 21:00S 32°40' E 152°24'510.3
2018-Feb-10 20:30S 32°44' E 152°20'510.1
2018-Feb-10 20:00S 32°47' E 152°16'510.1
2018-Feb-10 19:30S 32°50' E 152°11'5 9.9
2018-Feb-10 19:00S 32°53' E 152°06'5 9.8
2018-Feb-10 18:30S 32°56' E 152°01'5 9.2
2018-Feb-10 18:00S 32°57' E 151°56'5 9.8
2018-Feb-10 17:30S 32°56' E 151°50'3 5.1
2018-Feb-10 17:00S 32°55' E 151°47'2 3.2
2018-Feb-10 16:30S 32°54' E 151°46'1 1.1
2018-Feb-10 15:52S 32°53' E 151°46'0 0.0
2018-Feb-10 15:28S 32°53' E 151°46'0 0.0
2018-Feb-10 14:52S 32°53' E 151°46'0 0.0
2018-Feb-10 14:28S 32°53' E 151°46'0 0.0
2018-Feb-10 13:58S 32°53' E 151°46'0 0.0
2018-Feb-10 13:28S 32°53' E 151°46'0 0.0
2018-Feb-10 12:58S 32°53' E 151°46'0 0.0
2018-Feb-10 12:28S 32°53' E 151°46'0 0.0
2018-Feb-10 11:58S 32°53' E 151°46'0 0.0
2018-Feb-10 11:22S 32°53' E 151°46'0 0.0
2018-Feb-10 10:58S 32°53' E 151°46'0 0.0
2018-Feb-10 09:46S 32°53' E 151°46'0 0.0
2018-Feb-10 09:28S 32°53' E 151°46'0 0.0
2018-Feb-10 08:22S 32°53' E 151°46'0 0.0
2018-Feb-10 07:58S 32°53' E 151°46'0 0.0
2018-Feb-10 07:22S 32°53' E 151°46'0 0.0
2018-Feb-10 06:43S 32°53' E 151°46'0 0.0
2018-Feb-10 06:22S 32°53' E 151°46'0 0.0
2018-Feb-10 05:58S 32°53' E 151°46'0 0.0
2018-Feb-10 05:28S 32°53' E 151°46'0 0.0
2018-Feb-10 04:55S 32°53' E 151°46'0 0.0
2018-Feb-10 04:28S 32°53' E 151°46'0 0.0
2018-Feb-10 03:58S 32°53' E 151°46'0 0.0
2018-Feb-10 03:22S 32°53' E 151°46'0 0.0
2018-Feb-10 02:58S 32°53' E 151°46'0 0.0
2018-Feb-10 02:22S 32°53' E 151°46'0 0.0
2018-Feb-10 01:52S 32°53' E 151°46'0 0.0
2018-Feb-10 01:28S 32°53' E 151°46'0 0.0
2018-Feb-10 00:58S 32°53' E 151°46'0 0.0
2018-Feb-10 00:28S 32°53' E 151°46'0 0.0
2018-Feb-09 23:58S 32°53' E 151°46'0 0.0
2018-Feb-09 23:25S 32°53' E 151°46'0 0.0
2018-Feb-09 22:58S 32°53' E 151°46'0 0.0
2018-Feb-09 22:34S 32°53' E 151°46'8 0.8
2018-Feb-09 12:30S 32°59' E 151°53'3 6.6
2018-Feb-09 12:00S 33°02' E 151°52'3 6.7
2018-Feb-09 11:30S 33°05' E 151°51'3 7.0
2018-Feb-09 11:00S 33°08' E 151°49'4 0.9
2018-Feb-09 07:00S 33°09' E 151°54'2 3.2
2018-Feb-09 06:30S 33°08' E 151°55'2 3.4
2018-Feb-09 06:00S 33°06' E 151°56'2 3.4
2018-Feb-09 05:30S 33°05' E 151°57'3 3.1
2018-Feb-09 04:30S 33°02' E 151°59'4 2.8
2018-Feb-09 03:00S 32°58' E 151°60'510.9
2018-Feb-09 02:30S 32°54' E 152°04'714.2
2018-Feb-09 02:00S 32°50' E 152°11'714.1
2018-Feb-09 01:30S 32°45' E 152°17'714.1
2018-Feb-09 01:00S 32°41' E 152°24'714.6
2018-Feb-09 00:30S 32°36' E 152°30'714.8
2018-Feb-09 00:00S 32°31' E 152°36'5415.3
2018-Feb-08 20:30S 31°41' E 153°01'19014.6
2018-Feb-08 07:30S 28°36' E 153°48'612.8
2018-Feb-08 07:00S 28°29' E 153°48'2412.2
2018-Feb-08 05:00S 28°05' E 153°52'611.8
2018-Feb-08 04:30S 27°59' E 153°53'1212.0
2018-Feb-08 03:30S 27°47' E 153°55'  

Dump ship's entire track history